createdAt,value
2017-01-02T00:00:45.961Z,47.7
2017-01-02T00:03:18.284Z,47.7
2017-01-02T00:05:50.632Z,47.7
2017-01-02T00:08:22.959Z,47.6
2017-01-02T00:10:55.297Z,47.6
2017-01-02T00:13:27.626Z,47.6
2017-01-02T00:15:59.950Z,47.6
2017-01-02T00:18:32.251Z,47.6
2017-01-02T00:21:04.573Z,47.4
2017-01-02T00:23:36.882Z,47.4
2017-01-02T00:26:09.218Z,47.4
2017-01-02T00:28:41.548Z,47.4
2017-01-02T00:31:13.906Z,47.4
2017-01-02T00:33:46.225Z,47.4
2017-01-02T00:36:18.554Z,47.4
2017-01-02T00:38:50.866Z,47.4
2017-01-02T00:41:23.190Z,47.4
2017-01-02T00:43:55.521Z,47.4
2017-01-02T00:46:27.844Z,47.4
2017-01-02T00:49:00.159Z,47.4
2017-01-02T00:51:32.520Z,47.4
2017-01-02T00:54:04.844Z,47.4
2017-01-02T00:56:37.165Z,47.4
2017-01-02T00:59:09.682Z,47.4
2017-01-02T01:01:42.004Z,47.4
2017-01-02T01:04:14.315Z,47.4
2017-01-02T01:06:46.644Z,47.4
2017-01-02T01:09:18.979Z,47.4
2017-01-02T01:11:51.308Z,47.4
2017-01-02T01:14:24.098Z,47.4
2017-01-02T01:16:56.425Z,47.4
2017-01-02T01:19:28.753Z,47.4
2017-01-02T01:22:01.091Z,47.4
2017-01-02T01:24:33.413Z,47.4
2017-01-02T01:27:05.772Z,47.4
2017-01-02T01:29:38.080Z,47.5
2017-01-02T01:32:10.413Z,47.5
2017-01-02T01:34:42.743Z,47.4
2017-01-02T01:37:15.087Z,47.5
2017-01-02T01:39:47.414Z,47.5
2017-01-02T01:42:19.739Z,47.5
2017-01-02T01:44:52.047Z,47.5
2017-01-02T01:47:24.377Z,47.5
2017-01-02T01:49:56.691Z,47.5
2017-01-02T01:52:29.440Z,47.5
2017-01-02T01:55:01.740Z,47.5
2017-01-02T01:57:34.070Z,47.4
2017-01-02T02:00:06.394Z,47.5
2017-01-02T02:02:39.151Z,47.5
2017-01-02T02:05:11.471Z,47.4
2017-01-02T02:07:43.799Z,47.5
2017-01-02T02:10:16.105Z,47.5
2017-01-02T02:12:48.437Z,47.5
2017-01-02T02:15:20.782Z,47.4
2017-01-02T02:17:53.092Z,47.4
2017-01-02T02:20:25.429Z,47.5
2017-01-02T02:22:57.751Z,47.5
2017-01-02T02:25:30.087Z,47.4
2017-01-02T02:28:02.410Z,47.4
2017-01-02T02:30:34.719Z,47.4
2017-01-02T02:33:07.030Z,47.4
2017-01-02T02:35:39.351Z,47.4
2017-01-02T02:38:11.695Z,47.4
2017-01-02T02:40:44.031Z,47.5
2017-01-02T02:43:16.353Z,47.4
2017-01-02T02:45:48.671Z,47.4
2017-01-02T02:48:21.026Z,47.4
2017-01-02T02:50:53.337Z,47.5
2017-01-02T02:53:25.680Z,47.4
2017-01-02T02:55:58.000Z,47.4
2017-01-02T02:58:30.308Z,47.4
2017-01-02T03:01:02.635Z,47.4
2017-01-02T03:03:34.956Z,47.4
2017-01-02T03:06:07.291Z,47.4
2017-01-02T03:08:39.618Z,47.4
2017-01-02T03:11:11.992Z,47.4
2017-01-02T03:13:44.309Z,47.4
2017-01-02T03:16:16.634Z,47.4
2017-01-02T03:18:49.360Z,47.4
2017-01-02T03:21:21.702Z,47.4
2017-01-02T03:23:54.030Z,47.3
2017-01-02T03:26:26.347Z,47.3
2017-01-02T03:28:58.659Z,47.3
2017-01-02T03:31:30.998Z,47.4
2017-01-02T03:34:03.317Z,47.3
2017-01-02T03:36:35.641Z,47.3
2017-01-02T03:39:07.958Z,47.3
2017-01-02T03:41:40.261Z,47.3
2017-01-02T03:44:12.637Z,47.3
2017-01-02T03:46:44.978Z,47.3
2017-01-02T03:49:17.321Z,47.3
2017-01-02T03:51:49.648Z,47.3
2017-01-02T03:54:21.974Z,47.3
2017-01-02T03:56:54.307Z,47.3
2017-01-02T03:59:26.633Z,47.3
2017-01-02T04:01:58.951Z,47.3
2017-01-02T04:04:31.255Z,47.3
2017-01-02T04:07:03.612Z,47.3
2017-01-02T04:09:35.937Z,47.3
2017-01-02T04:12:08.253Z,47.3
2017-01-02T04:14:40.567Z,47.3
2017-01-02T04:17:12.909Z,47.3
2017-01-02T04:19:45.213Z,47.3
2017-01-02T04:22:17.537Z,47.3
2017-01-02T04:24:49.845Z,47.3
2017-01-02T04:27:22.180Z,47.3
2017-01-02T04:29:54.513Z,47.3
2017-01-02T04:32:26.824Z,47.3
2017-01-02T04:34:59.163Z,47.3
2017-01-02T04:37:31.475Z,47.3
2017-01-02T04:40:03.787Z,47.3
2017-01-02T04:42:36.127Z,47.3
2017-01-02T04:45:08.458Z,47.3
2017-01-02T04:47:40.772Z,47.3
2017-01-02T04:50:13.095Z,47.3
2017-01-02T04:52:45.411Z,47.3
2017-01-02T04:55:17.732Z,47.3
2017-01-02T04:57:50.054Z,47.3
2017-01-02T05:00:22.381Z,47.3
2017-01-02T05:02:54.713Z,47.3
2017-01-02T05:05:27.032Z,47.3
2017-01-02T05:07:59.359Z,47.3
2017-01-02T05:10:31.678Z,47.3
2017-01-02T05:13:04.026Z,47.3
2017-01-02T05:15:36.349Z,47.3
2017-01-02T05:18:08.682Z,47.3
2017-01-02T05:20:40.993Z,47.3
2017-01-02T05:23:13.353Z,47.3
2017-01-02T05:25:45.687Z,47.2
2017-01-02T05:28:18.011Z,47.2
2017-01-02T05:30:50.334Z,47.2
2017-01-02T05:33:22.641Z,47.2
2017-01-02T05:35:54.975Z,47.2
2017-01-02T05:38:27.319Z,47.2
2017-01-02T05:40:59.642Z,47.2
2017-01-02T05:43:31.964Z,47.2
2017-01-02T05:46:04.287Z,47.2
2017-01-02T05:48:36.629Z,47.4
2017-01-02T05:51:09.088Z,46.4
2017-01-02T05:53:41.418Z,44.9
2017-01-02T05:56:13.725Z,43.5
2017-01-02T05:58:46.031Z,42.3
2017-01-02T06:01:18.367Z,42.2
2017-01-02T06:03:50.687Z,41.8
2017-01-02T06:06:23.028Z,42.1
2017-01-02T06:08:55.338Z,41.9
2017-01-02T06:11:27.667Z,41.6
2017-01-02T06:14:00.549Z,43
2017-01-02T06:16:33.033Z,44.3
2017-01-02T06:19:05.404Z,44.9
2017-01-02T06:21:37.805Z,45.2
2017-01-02T06:24:10.129Z,45.6
2017-01-02T06:26:42.453Z,45.7
2017-01-02T06:29:14.789Z,46
2017-01-02T06:31:47.115Z,46.1
2017-01-02T06:34:19.456Z,46.2
2017-01-02T06:36:51.818Z,46.3
2017-01-02T06:39:24.173Z,46.3
2017-01-02T06:41:56.529Z,46.5
2017-01-02T06:44:29.022Z,46.5
2017-01-02T06:47:01.682Z,46.5
2017-01-02T06:49:34.189Z,46.5
2017-01-02T06:52:06.816Z,46.6
2017-01-02T06:54:40.420Z,46.6
2017-01-02T06:57:12.780Z,46.6
2017-01-02T06:59:45.141Z,46.5
2017-01-02T07:02:17.468Z,46.6
2017-01-02T07:04:49.799Z,46.6
2017-01-02T07:07:22.167Z,46.7
2017-01-02T07:09:54.498Z,46.7
2017-01-02T07:12:26.985Z,46.8
2017-01-02T07:14:59.319Z,46.8
2017-01-02T07:17:31.633Z,46.8
2017-01-02T07:20:04.076Z,46.9
2017-01-02T07:22:36.467Z,47
2017-01-02T07:25:08.830Z,47
2017-01-02T07:27:41.164Z,47.1
2017-01-02T07:30:13.493Z,47.2
2017-01-02T07:32:46.077Z,47.2
2017-01-02T07:35:18.391Z,47.3
2017-01-02T07:37:50.719Z,47.3
2017-01-02T07:40:23.034Z,47.4
2017-01-02T07:42:55.361Z,47.4
2017-01-02T07:45:27.679Z,47.5
2017-01-02T07:47:59.993Z,47.5
2017-01-02T07:50:32.332Z,47.6
2017-01-02T07:53:04.664Z,47.6
2017-01-02T07:55:36.993Z,47.6
2017-01-02T07:58:09.316Z,47.7
2017-01-02T08:00:41.613Z,47.7
2017-01-02T08:03:13.968Z,47.8
2017-01-02T08:05:46.290Z,47.8
2017-01-02T08:08:18.619Z,47.8
2017-01-02T08:10:50.942Z,47.8
2017-01-02T08:13:23.358Z,47.8
2017-01-02T08:15:55.726Z,47.9
2017-01-02T08:18:28.252Z,47.8
2017-01-02T08:21:00.602Z,47.8
2017-01-02T08:23:33.115Z,47.9
2017-01-02T08:26:05.455Z,47.9
2017-01-02T08:28:37.787Z,47.9
2017-01-02T08:31:10.112Z,47.9
2017-01-02T08:33:42.852Z,47.8
2017-01-02T08:36:15.198Z,47.9
2017-01-02T08:38:47.519Z,47.9
2017-01-02T08:41:20.055Z,47.9
2017-01-02T08:43:52.374Z,47.9
2017-01-02T08:46:24.704Z,47.9
2017-01-02T08:48:57.012Z,47.9
2017-01-02T08:51:29.337Z,47.9
2017-01-02T08:54:01.674Z,47.9
2017-01-02T08:56:33.994Z,47.9
2017-01-02T08:59:06.380Z,47.9
2017-01-02T09:01:38.700Z,47.9
2017-01-02T09:04:11.047Z,47.9
2017-01-02T09:06:43.572Z,47.9
2017-01-02T09:09:15.896Z,47.9
2017-01-02T09:11:48.204Z,47.9
2017-01-02T09:14:20.593Z,47.9
2017-01-02T09:16:53.200Z,47.9
2017-01-02T09:19:25.528Z,47.9
2017-01-02T09:21:58.079Z,47.9
2017-01-02T09:24:30.386Z,48
2017-01-02T09:27:03.039Z,47.9
2017-01-02T09:29:35.760Z,47.9
2017-01-02T09:32:08.079Z,47.8
2017-01-02T09:34:40.399Z,47.9
2017-01-02T09:37:12.703Z,47.8
2017-01-02T09:39:45.043Z,47.8
2017-01-02T09:42:17.360Z,47.8
2017-01-02T09:44:49.681Z,47.8
2017-01-02T09:47:21.999Z,47.8
2017-01-02T09:49:54.332Z,47.9
2017-01-02T09:52:26.652Z,47.9
2017-01-02T09:54:59.014Z,47.9
2017-01-02T09:57:31.338Z,47.9
2017-01-02T10:00:03.652Z,47.9
2017-01-02T10:02:35.971Z,47.9
2017-01-02T10:05:08.690Z,47.9
2017-01-02T10:07:41.009Z,47.9
2017-01-02T10:10:13.421Z,47.9
2017-01-02T10:12:46.046Z,47.9
2017-01-02T10:15:18.382Z,47.9
2017-01-02T10:17:50.702Z,47.9
2017-01-02T10:20:23.022Z,47.9
2017-01-02T10:22:55.331Z,47.9
2017-01-02T10:25:28.258Z,47.8
2017-01-02T10:28:00.599Z,47.8
2017-01-02T10:30:33.341Z,47.8
2017-01-02T10:33:05.688Z,47.8
2017-01-02T10:35:38.008Z,47.8
2017-01-02T10:38:10.326Z,47.8
2017-01-02T10:40:42.639Z,47.8
2017-01-02T10:43:14.952Z,47.8
2017-01-02T10:45:47.286Z,47.8
2017-01-02T10:48:20.145Z,47.8
2017-01-02T10:50:52.445Z,47.9
2017-01-02T10:53:24.768Z,47.9
2017-01-02T10:55:57.097Z,47.8
2017-01-02T10:58:29.413Z,47.8
2017-01-02T11:01:01.762Z,47.8
2017-01-02T11:03:34.078Z,47.8
2017-01-02T11:06:06.414Z,47.8
2017-01-02T11:08:38.732Z,47.7
2017-01-02T11:11:11.558Z,47.8
2017-01-02T11:13:43.872Z,47.7
2017-01-02T11:16:16.218Z,47.8
2017-01-02T11:18:48.551Z,47.8
2017-01-02T11:21:20.887Z,47.8
2017-01-02T11:23:53.285Z,47.9
2017-01-02T11:26:26.024Z,47.9
2017-01-02T11:28:58.337Z,47.9
2017-01-02T11:31:30.682Z,47.9
2017-01-02T11:34:03.006Z,47.9
2017-01-02T11:36:35.344Z,47.8
2017-01-02T11:39:07.651Z,47.9
2017-01-02T11:41:39.990Z,47.9
2017-01-02T11:44:12.360Z,47.9
2017-01-02T11:46:44.703Z,47.9
2017-01-02T11:49:17.031Z,47.9
2017-01-02T11:51:49.372Z,47.9
2017-01-02T11:54:21.691Z,47.9
2017-01-02T11:56:54.020Z,47.9
2017-01-02T11:59:26.363Z,47.9
2017-01-02T12:01:58.688Z,47.9
2017-01-02T12:04:31.022Z,47.9
2017-01-02T12:07:03.340Z,48
2017-01-02T12:09:35.870Z,46
2017-01-02T12:12:08.209Z,42.3
2017-01-02T12:14:40.535Z,42
2017-01-02T12:17:12.844Z,41.4
